sensor_id;sensor_type;location;lat;lon;timestamp;pressure;altitude;pressure_sealevel;temperature;humidity
63006;BME280;53704;52.532;6.426;2023-09-30T15:58:54;102487.28;;;17.28;100.00
63006;BME280;53704;52.532;6.426;2023-09-30T16:01:28;102489.66;;;17.07;100.00
63006;BME280;53704;52.532;6.426;2023-09-30T16:03:56;102489.84;;;17.22;100.00
63006;BME280;53704;52.532;6.426;2023-09-30T16:06:29;102492.22;;;17.25;100.00
63006;BME280;53704;52.532;6.426;2023-09-30T16:09:07;102487.13;;;17.30;100.00
63006;BME280;53704;52.532;6.426;2023-09-30T16:11:50;102477.78;;;17.32;100.00
63006;BME280;53704;52.532;6.426;2023-09-30T16:14:16;102474.72;;;17.19;100.00
63006;BME280;53704;52.532;6.426;2023-09-30T16:16:45;102476.09;;;17.48;100.00
63006;BME280;53704;52.532;6.426;2023-09-30T16:19:16;102481.22;;;17.51;100.00
63006;BME280;53704;52.532;6.426;2023-09-30T16:21:54;102476.59;;;17.51;100.00
63006;BME280;53704;52.532;6.426;2023-09-30T16:24:28;102471.84;;;17.62;100.00
63006;BME280;53704;52.532;6.426;2023-09-30T16:26:56;102487.16;;;17.54;100.00
63006;BME280;53704;52.532;6.426;2023-09-30T16:29:27;102474.41;;;17.63;100.00
63006;BME280;53704;52.532;6.426;2023-09-30T16:31:52;102482.56;;;17.71;100.00
63006;BME280;53704;52.532;6.426;2023-09-30T16:34:28;102483.59;;;17.62;100.00
63006;BME280;53704;52.532;6.426;2023-09-30T16:37:20;102484.09;;;17.66;100.00
63006;BME280;53704;52.532;6.426;2023-09-30T16:39:52;102487.00;;;17.40;100.00
63006;BME280;53704;52.532;6.426;2023-09-30T16:42:54;102492.44;;;17.48;100.00
63006;BME280;53704;52.532;6.426;2023-09-30T16:45:46;102485.97;;;17.57;100.00
63006;BME280;53704;52.532;6.426;2023-09-30T16:48:17;102487.00;;;17.56;100.00
63006;BME280;53704;52.532;6.426;2023-09-30T16:50:51;102494.81;;;17.51;100.00
63006;BME280;53704;52.532;6.426;2023-09-30T16:53:45;102486.81;;;17.49;100.00
63006;BME280;53704;52.532;6.426;2023-09-30T16:56:14;102496.84;;;17.49;100.00
63006;BME280;53704;52.532;6.426;2023-09-30T16:58:43;102506.38;;;17.36;100.00
63006;BME280;53704;52.532;6.426;2023-09-30T17:01:29;102500.25;;;17.43;100.00
63006;BME280;53704;52.532;6.426;2023-09-30T17:04:26;102489.88;;;17.38;100.00
63006;BME280;53704;52.532;6.426;2023-09-30T17:07:08;102502.13;;;17.34;100.00
63006;BME280;53704;52.532;6.426;2023-09-30T17:09:41;102508.41;;;17.34;100.00
63006;BME280;53704;52.532;6.426;2023-09-30T20:12:47;102500.72;;;15.30;100.00
63006;BME280;53704;52.532;6.426;2023-09-30T20:15:54;102500.47;;;15.23;100.00
63006;BME280;53704;52.532;6.426;2023-09-30T20:18:16;102504.81;;;15.16;100.00
63006;BME280;53704;52.532;6.426;2023-09-30T20:20:44;102503.66;;;15.18;100.00
63006;BME280;53704;52.532;6.426;2023-09-30T20:23:10;102495.13;;;15.13;100.00
63006;BME280;53704;52.532;6.426;2023-09-30T20:25:39;102504.19;;;15.04;100.00
63006;BME280;53704;52.532;6.426;2023-09-30T20:28:05;102497.44;;;15.08;100.00
63006;BME280;53704;52.532;6.426;2023-09-30T20:30:32;102507.97;;;14.93;100.00
63006;BME280;53704;52.532;6.426;2023-09-30T20:32:58;102525.13;;;14.84;100.00
63006;BME280;53704;52.532;6.426;2023-09-30T20:35:24;102518.03;;;14.73;100.00
63006;BME280;53704;52.532;6.426;2023-09-30T20:37:49;102509.91;;;14.73;100.00
63006;BME280;53704;52.532;6.426;2023-09-30T20:40:15;102510.56;;;14.85;100.00
63006;BME280;53704;52.532;6.426;2023-09-30T20:42:41;102506.16;;;15.02;100.00
63006;BME280;53704;52.532;6.426;2023-09-30T20:45:08;102505.25;;;15.11;100.00
63006;BME280;53704;52.532;6.426;2023-09-30T20:47:33;102502.56;;;15.11;100.00
63006;BME280;53704;52.532;6.426;2023-09-30T20:49:59;102493.84;;;14.90;100.00
63006;BME280;53704;52.532;6.426;2023-09-30T20:52:24;102490.53;;;14.68;100.00
63006;BME280;53704;52.532;6.426;2023-09-30T20:54:49;102494.25;;;14.95;100.00
63006;BME280;53704;52.532;6.426;2023-09-30T20:57:15;102487.91;;;15.04;100.00
63006;BME280;53704;52.532;6.426;2023-09-30T20:59:40;102499.72;;;14.85;100.00
63006;BME280;53704;52.532;6.426;2023-09-30T21:02:06;102497.50;;;14.98;100.00
63006;BME280;53704;52.532;6.426;2023-09-30T21:04:33;102498.50;;;14.97;100.00
63006;BME280;53704;52.532;6.426;2023-09-30T21:06:58;102509.38;;;15.15;100.00
63006;BME280;53704;52.532;6.426;2023-09-30T21:09:25;102515.13;;;15.30;100.00
63006;BME280;53704;52.532;6.426;2023-09-30T21:11:50;102512.72;;;15.27;100.00
63006;BME280;53704;52.532;6.426;2023-09-30T21:14:16;102505.09;;;15.13;100.00
63006;BME280;53704;52.532;6.426;2023-09-30T21:16:41;102484.59;;;15.10;100.00
63006;BME280;53704;52.532;6.426;2023-09-30T21:19:07;102476.53;;;15.18;100.00
63006;BME280;53704;52.532;6.426;2023-09-30T21:21:33;102476.41;;;14.92;100.00
63006;BME280;53704;52.532;6.426;2023-09-30T21:23:59;102471.56;;;14.68;100.00
63006;BME280;53704;52.532;6.426;2023-09-30T21:26:26;102465.69;;;14.73;100.00
63006;BME280;53704;52.532;6.426;2023-09-30T21:28:51;102480.47;;;14.78;100.00
63006;BME280;53704;52.532;6.426;2023-09-30T21:31:19;102476.38;;;14.74;100.00
63006;BME280;53704;52.532;6.426;2023-09-30T21:33:46;102475.31;;;14.85;100.00
63006;BME280;53704;52.532;6.426;2023-09-30T21:36:13;102482.56;;;14.94;100.00
63006;BME280;53704;52.532;6.426;2023-09-30T21:38:39;102477.06;;;15.04;100.00
63006;BME280;53704;52.532;6.426;2023-09-30T21:41:11;102481.38;;;14.97;100.00
63006;BME280;53704;52.532;6.426;2023-09-30T21:43:37;102473.47;;;14.86;100.00
63006;BME280;53704;52.532;6.426;2023-09-30T21:46:02;102473.03;;;15.08;100.00
63006;BME280;53704;52.532;6.426;2023-09-30T21:48:29;102471.50;;;15.06;100.00
63006;BME280;53704;52.532;6.426;2023-09-30T21:50:54;102465.91;;;15.07;100.00
63006;BME280;53704;52.532;6.426;2023-09-30T21:53:19;102466.91;;;14.78;100.00
63006;BME280;53704;52.532;6.426;2023-09-30T21:55:45;102462.81;;;14.74;100.00
63006;BME280;53704;52.532;6.426;2023-09-30T21:58:10;102465.41;;;14.94;100.00
63006;BME280;53704;52.532;6.426;2023-09-30T22:00:36;102473.97;;;14.71;100.00
63006;BME280;53704;52.532;6.426;2023-09-30T22:03:08;102475.94;;;14.79;100.00
63006;BME280;53704;52.532;6.426;2023-09-30T22:05:38;102470.81;;;14.76;100.00
63006;BME280;53704;52.532;6.426;2023-09-30T22:08:06;102470.66;;;14.77;100.00
63006;BME280;53704;52.532;6.426;2023-09-30T22:10:32;102474.81;;;14.72;100.00
63006;BME280;53704;52.532;6.426;2023-09-30T22:12:58;102460.03;;;14.66;100.00
63006;BME280;53704;52.532;6.426;2023-09-30T22:15:24;102466.75;;;14.52;100.00
63006;BME280;53704;52.532;6.426;2023-09-30T22:17:51;102467.59;;;14.53;100.00
63006;BME280;53704;52.532;6.426;2023-09-30T22:20:17;102463.81;;;14.45;100.00
63006;BME280;53704;52.532;6.426;2023-09-30T22:22:42;102467.06;;;14.49;100.00
63006;BME280;53704;52.532;6.426;2023-09-30T22:25:09;102468.66;;;14.42;100.00
63006;BME280;53704;52.532;6.426;2023-09-30T22:27:34;102462.09;;;14.44;100.00
63006;BME280;53704;52.532;6.426;2023-09-30T22:30:00;102455.22;;;14.60;100.00
63006;BME280;53704;52.532;6.426;2023-09-30T22:32:26;102446.63;;;14.55;100.00
63006;BME280;53704;52.532;6.426;2023-09-30T22:34:52;102448.94;;;14.50;100.00
63006;BME280;53704;52.532;6.426;2023-09-30T22:37:17;102447.13;;;14.40;100.00
63006;BME280;53704;52.532;6.426;2023-09-30T22:39:43;102449.72;;;14.32;100.00
63006;BME280;53704;52.532;6.426;2023-09-30T22:42:11;102449.81;;;14.40;100.00
63006;BME280;53704;52.532;6.426;2023-09-30T22:44:38;102448.03;;;14.31;100.00
63006;BME280;53704;52.532;6.426;2023-09-30T22:47:03;102445.72;;;14.36;100.00
63006;BME280;53704;52.532;6.426;2023-09-30T22:49:29;102425.13;;;14.16;100.00
63006;BME280;53704;52.532;6.426;2023-09-30T22:51:54;102423.16;;;14.08;100.00
63006;BME280;53704;52.532;6.426;2023-09-30T22:54:20;102432.78;;;14.30;100.00
63006;BME280;53704;52.532;6.426;2023-09-30T22:56:45;102437.25;;;14.11;100.00
63006;BME280;53704;52.532;6.426;2023-09-30T22:59:11;102437.97;;;14.14;100.00
63006;BME280;53704;52.532;6.426;2023-09-30T23:01:36;102433.03;;;13.99;100.00
63006;BME280;53704;52.532;6.426;2023-09-30T23:04:02;102433.06;;;14.27;100.00
63006;BME280;53704;52.532;6.426;2023-09-30T23:06:28;102426.81;;;14.17;100.00
63006;BME280;53704;52.532;6.426;2023-09-30T23:08:55;102425.03;;;14.07;100.00
63006;BME280;53704;52.532;6.426;2023-09-30T23:11:20;102410.03;;;14.13;100.00
63006;BME280;53704;52.532;6.426;2023-09-30T23:13:46;102413.41;;;14.25;100.00
63006;BME280;53704;52.532;6.426;2023-09-30T23:16:12;102406.38;;;13.94;100.00
63006;BME280;53704;52.532;6.426;2023-09-30T23:18:38;102401.53;;;13.98;100.00
63006;BME280;53704;52.532;6.426;2023-09-30T23:21:04;102405.22;;;14.07;100.00
63006;BME280;53704;52.532;6.426;2023-09-30T23:23:33;102402.69;;;14.33;100.00
63006;BME280;53704;52.532;6.426;2023-09-30T23:25:59;102396.00;;;14.27;100.00
63006;BME280;53704;52.532;6.426;2023-09-30T23:28:27;102392.53;;;14.07;100.00
63006;BME280;53704;52.532;6.426;2023-09-30T23:30:54;102384.38;;;14.17;100.00
63006;BME280;53704;52.532;6.426;2023-09-30T23:33:19;102381.81;;;14.16;100.00
63006;BME280;53704;52.532;6.426;2023-09-30T23:35:45;102386.34;;;13.87;100.00
63006;BME280;53704;52.532;6.426;2023-09-30T23:38:11;102402.97;;;13.92;100.00
63006;BME280;53704;52.532;6.426;2023-09-30T23:40:38;102397.66;;;14.01;100.00
63006;BME280;53704;52.532;6.426;2023-09-30T23:43:06;102399.00;;;13.97;100.00
63006;BME280;53704;52.532;6.426;2023-09-30T23:45:33;102397.00;;;13.89;100.00
63006;BME280;53704;52.532;6.426;2023-09-30T23:48:03;102392.19;;;14.20;100.00
63006;BME280;53704;52.532;6.426;2023-09-30T23:50:33;102400.47;;;14.19;100.00
63006;BME280;53704;52.532;6.426;2023-09-30T23:53:00;102389.88;;;14.25;100.00
63006;BME280;53704;52.532;6.426;2023-09-30T23:55:26;102394.56;;;14.33;100.00
63006;BME280;53704;52.532;6.426;2023-09-30T23:57:53;102395.44;;;14.24;100.00
